sensor_id;sensor_type;location;lat;lon;timestamp;P1;durP1;ratioP1;P2;durP2;ratioP2
24411;SDS011;12544;46.760;15.942;2023-08-17T00:00:14;7.65;;;6.90;;
24411;SDS011;12544;46.760;15.942;2023-08-17T00:06:02;6.75;;;6.07;;
24411;SDS011;12544;46.760;15.942;2023-08-17T00:08:27;7.70;;;7.07;;
24411;SDS011;12544;46.760;15.942;2023-08-17T00:14:15;7.20;;;6.50;;
24411;SDS011;12544;46.760;15.942;2023-08-17T00:16:40;7.47;;;6.88;;
24411;SDS011;12544;46.760;15.942;2023-08-17T00:19:06;8.07;;;6.95;;
24411;SDS011;12544;46.760;15.942;2023-08-17T00:21:32;7.43;;;6.68;;
24411;SDS011;12544;46.760;15.942;2023-08-17T00:23:58;7.68;;;7.07;;
24411;SDS011;12544;46.760;15.942;2023-08-17T00:29:45;9.02;;;8.13;;
24411;SDS011;12544;46.760;15.942;2023-08-17T00:32:11;8.52;;;7.63;;
24411;SDS011;12544;46.760;15.942;2023-08-17T00:34:36;8.32;;;7.57;;
24411;SDS011;12544;46.760;15.942;2023-08-17T00:40:24;8.65;;;7.85;;
24411;SDS011;12544;46.760;15.942;2023-08-17T00:42:50;7.90;;;7.18;;
24411;SDS011;12544;46.760;15.942;2023-08-17T00:48:37;9.52;;;8.60;;
24411;SDS011;12544;46.760;15.942;2023-08-17T00:51:03;8.43;;;7.50;;
24411;SDS011;12544;46.760;15.942;2023-08-17T00:53:30;9.35;;;8.43;;
24411;SDS011;12544;46.760;15.942;2023-08-17T00:55:57;8.88;;;8.07;;
24411;SDS011;12544;46.760;15.942;2023-08-17T00:58:24;9.70;;;7.47;;
24411;SDS011;12544;46.760;15.942;2023-08-17T01:00:50;8.13;;;7.43;;
24411;SDS011;12544;46.760;15.942;2023-08-17T01:03:16;8.15;;;7.38;;
24411;SDS011;12544;46.760;15.942;2023-08-17T01:05:43;8.75;;;7.65;;
24411;SDS011;12544;46.760;15.942;2023-08-17T01:08:09;8.10;;;7.35;;
24411;SDS011;12544;46.760;15.942;2023-08-17T01:10:46;8.63;;;7.93;;
24411;SDS011;12544;46.760;15.942;2023-08-17T01:16:45;8.63;;;7.82;;
24411;SDS011;12544;46.760;15.942;2023-08-17T01:19:20;9.20;;;8.50;;
24411;SDS011;12544;46.760;15.942;2023-08-17T01:21:51;10.85;;;8.82;;
24411;SDS011;12544;46.760;15.942;2023-08-17T01:24:22;11.57;;;8.05;;
24411;SDS011;12544;46.760;15.942;2023-08-17T01:26:47;8.95;;;8.18;;
24411;SDS011;12544;46.760;15.942;2023-08-17T01:29:13;8.75;;;7.85;;
24411;SDS011;12544;46.760;15.942;2023-08-17T01:32:27;9.82;;;8.85;;
24411;SDS011;12544;46.760;15.942;2023-08-17T01:34:27;9.82;;;8.20;;
24411;SDS011;12544;46.760;15.942;2023-08-17T01:36:56;8.38;;;7.57;;
24411;SDS011;12544;46.760;15.942;2023-08-17T01:39:28;9.90;;;8.43;;
24411;SDS011;12544;46.760;15.942;2023-08-17T01:41:59;9.02;;;8.07;;
24411;SDS011;12544;46.760;15.942;2023-08-17T01:44:26;9.38;;;8.57;;
24411;SDS011;12544;46.760;15.942;2023-08-17T01:46:52;9.00;;;8.30;;
24411;SDS011;12544;46.760;15.942;2023-08-17T01:49:19;9.48;;;8.68;;
24411;SDS011;12544;46.760;15.942;2023-08-17T01:51:45;8.63;;;7.93;;
24411;SDS011;12544;46.760;15.942;2023-08-17T01:54:11;10.13;;;8.95;;
24411;SDS011;12544;46.760;15.942;2023-08-17T01:56:36;10.35;;;8.75;;
24411;SDS011;12544;46.760;15.942;2023-08-17T01:59:02;9.35;;;8.35;;
24411;SDS011;12544;46.760;15.942;2023-08-17T02:01:27;9.75;;;8.85;;
24411;SDS011;12544;46.760;15.942;2023-08-17T02:03:53;9.75;;;8.85;;
24411;SDS011;12544;46.760;15.942;2023-08-17T02:06:19;10.40;;;9.38;;
24411;SDS011;12544;46.760;15.942;2023-08-17T02:08:44;10.05;;;7.85;;
24411;SDS011;12544;46.760;15.942;2023-08-17T02:11:10;9.30;;;8.40;;
24411;SDS011;12544;46.760;15.942;2023-08-17T02:13:36;8.98;;;8.15;;
24411;SDS011;12544;46.760;15.942;2023-08-17T02:16:02;10.80;;;9.23;;
24411;SDS011;12544;46.760;15.942;2023-08-17T02:18:29;9.05;;;8.32;;
24411;SDS011;12544;46.760;15.942;2023-08-17T02:20:56;8.85;;;7.90;;
24411;SDS011;12544;46.760;15.942;2023-08-17T02:23:22;12.38;;;8.45;;
24411;SDS011;12544;46.760;15.942;2023-08-17T02:25:48;8.93;;;8.13;;
24411;SDS011;12544;46.760;15.942;2023-08-17T02:28:13;10.00;;;9.00;;
24411;SDS011;12544;46.760;15.942;2023-08-17T02:30:39;10.13;;;9.23;;
24411;SDS011;12544;46.760;15.942;2023-08-17T02:33:04;10.63;;;8.38;;
24411;SDS011;12544;46.760;15.942;2023-08-17T02:35:30;10.15;;;9.15;;
24411;SDS011;12544;46.760;15.942;2023-08-17T02:37:56;9.35;;;8.45;;
24411;SDS011;12544;46.760;15.942;2023-08-17T02:40:21;9.73;;;8.93;;
24411;SDS011;12544;46.760;15.942;2023-08-17T02:42:47;10.43;;;9.43;;
24411;SDS011;12544;46.760;15.942;2023-08-17T02:45:13;10.70;;;9.85;;
24411;SDS011;12544;46.760;15.942;2023-08-17T02:47:38;11.23;;;10.07;;
24411;SDS011;12544;46.760;15.942;2023-08-17T02:50:04;10.00;;;9.20;;
24411;SDS011;12544;46.760;15.942;2023-08-17T02:52:30;11.18;;;10.07;;
24411;SDS011;12544;46.760;15.942;2023-08-17T02:54:56;10.27;;;9.30;;
24411;SDS011;12544;46.760;15.942;2023-08-17T02:57:21;9.98;;;9.18;;
24411;SDS011;12544;46.760;15.942;2023-08-17T02:59:47;10.63;;;9.73;;
24411;SDS011;12544;46.760;15.942;2023-08-17T03:02:30;10.90;;;9.82;;
24411;SDS011;12544;46.760;15.942;2023-08-17T03:04:55;10.45;;;8.88;;
24411;SDS011;12544;46.760;15.942;2023-08-17T03:07:21;10.13;;;9.13;;
24411;SDS011;12544;46.760;15.942;2023-08-17T03:09:46;9.82;;;8.95;;
24411;SDS011;12544;46.760;15.942;2023-08-17T03:12:12;11.85;;;9.40;;
24411;SDS011;12544;46.760;15.942;2023-08-17T03:14:38;11.20;;;8.95;;
24411;SDS011;12544;46.760;15.942;2023-08-17T03:17:03;10.50;;;9.18;;
24411;SDS011;12544;46.760;15.942;2023-08-17T03:19:29;9.88;;;8.57;;
24411;SDS011;12544;46.760;15.942;2023-08-17T03:21:54;10.15;;;9.13;;
24411;SDS011;12544;46.760;15.942;2023-08-17T03:24:20;13.07;;;9.25;;
24411;SDS011;12544;46.760;15.942;2023-08-17T03:26:46;9.95;;;9.02;;
24411;SDS011;12544;46.760;15.942;2023-08-17T03:29:11;10.13;;;9.23;;
24411;SDS011;12544;46.760;15.942;2023-08-17T03:31:37;10.32;;;9.43;;
24411;SDS011;12544;46.760;15.942;2023-08-17T03:34:03;11.40;;;10.30;;
24411;SDS011;12544;46.760;15.942;2023-08-17T03:36:30;11.82;;;10.10;;
24411;SDS011;12544;46.760;15.942;2023-08-17T03:38:56;11.48;;;9.43;;
24411;SDS011;12544;46.760;15.942;2023-08-17T03:41:21;10.82;;;9.73;;
24411;SDS011;12544;46.760;15.942;2023-08-17T03:43:50;12.23;;;10.38;;
24411;SDS011;12544;46.760;15.942;2023-08-17T03:46:16;15.43;;;9.75;;
24411;SDS011;12544;46.760;15.942;2023-08-17T03:48:41;10.40;;;9.50;;
24411;SDS011;12544;46.760;15.942;2023-08-17T03:51:23;10.50;;;9.40;;
24411;SDS011;12544;46.760;15.942;2023-08-17T03:53:49;12.13;;;9.82;;
24411;SDS011;12544;46.760;15.942;2023-08-17T03:56:14;14.13;;;10.18;;
24411;SDS011;12544;46.760;15.942;2023-08-17T03:58:40;10.95;;;9.95;;
24411;SDS011;12544;46.760;15.942;2023-08-17T04:01:07;11.60;;;10.48;;
24411;SDS011;12544;46.760;15.942;2023-08-17T04:03:33;10.65;;;9.75;;
24411;SDS011;12544;46.760;15.942;2023-08-17T04:06:03;10.85;;;9.75;;
24411;SDS011;12544;46.760;15.942;2023-08-17T04:08:30;11.85;;;10.82;;
24411;SDS011;12544;46.760;15.942;2023-08-17T04:10:55;12.15;;;10.50;;
24411;SDS011;12544;46.760;15.942;2023-08-17T04:13:21;11.63;;;10.52;;
24411;SDS011;12544;46.760;15.942;2023-08-17T04:15:47;10.30;;;9.40;;
24411;SDS011;12544;46.760;15.942;2023-08-17T04:18:12;10.77;;;9.77;;
24411;SDS011;12544;46.760;15.942;2023-08-17T04:20:38;11.82;;;10.73;;
24411;SDS011;12544;46.760;15.942;2023-08-17T04:23:03;11.27;;;10.02;;
24411;SDS011;12544;46.760;15.942;2023-08-17T04:25:29;10.10;;;9.10;;
24411;SDS011;12544;46.760;15.942;2023-08-17T04:27:55;11.27;;;10.23;;
24411;SDS011;12544;46.760;15.942;2023-08-17T04:33:42;10.77;;;9.77;;
24411;SDS011;12544;46.760;15.942;2023-08-17T04:36:08;13.75;;;11.73;;
24411;SDS011;12544;46.760;15.942;2023-08-17T04:38:33;12.43;;;10.43;;
24411;SDS011;12544;46.760;15.942;2023-08-17T04:40:59;12.13;;;10.93;;
24411;SDS011;12544;46.760;15.942;2023-08-17T04:46:47;11.77;;;10.70;;
24411;SDS011;12544;46.760;15.942;2023-08-17T04:49:12;11.90;;;10.95;;
24411;SDS011;12544;46.760;15.942;2023-08-17T04:51:38;12.25;;;11.05;;
24411;SDS011;12544;46.760;15.942;2023-08-17T04:54:04;13.73;;;11.10;;
24411;SDS011;12544;46.760;15.942;2023-08-17T04:56:29;13.10;;;11.40;;
24411;SDS011;12544;46.760;15.942;2023-08-17T05:02:17;13.30;;;12.07;;
24411;SDS011;12544;46.760;15.942;2023-08-17T05:04:43;13.57;;;12.02;;
24411;SDS011;12544;46.760;15.942;2023-08-17T05:07:08;12.20;;;11.10;;
24411;SDS011;12544;46.760;15.942;2023-08-17T05:09:34;13.90;;;12.63;;
24411;SDS011;12544;46.760;15.942;2023-08-17T05:12:00;23.80;;;12.93;;
24411;SDS011;12544;46.760;15.942;2023-08-17T05:14:26;13.20;;;11.90;;
24411;SDS011;12544;46.760;15.942;2023-08-17T05:16:51;12.98;;;11.80;;
24411;SDS011;12544;46.760;15.942;2023-08-17T05:19:17;14.68;;;12.15;;
24411;SDS011;12544;46.760;15.942;2023-08-17T05:21:42;14.43;;;13.10;;
24411;SDS011;12544;46.760;15.942;2023-08-17T05:24:08;11.45;;;10.48;;
24411;SDS011;12544;46.760;15.942;2023-08-17T05:26:34;13.23;;;12.18;;
24411;SDS011;12544;46.760;15.942;2023-08-17T05:28:59;12.85;;;11.60;;
24411;SDS011;12544;46.760;15.942;2023-08-17T05:34:47;12.77;;;11.68;;
24411;SDS011;12544;46.760;15.942;2023-08-17T05:37:13;12.95;;;11.52;;
24411;SDS011;12544;46.760;15.942;2023-08-17T05:39:40;11.98;;;10.77;;
24411;SDS011;12544;46.760;15.942;2023-08-17T05:42:06;12.82;;;11.00;;
24411;SDS011;12544;46.760;15.942;2023-08-17T05:44:32;12.57;;;11.52;;
24411;SDS011;12544;46.760;15.942;2023-08-17T05:46:58;12.65;;;11.45;;
24411;SDS011;12544;46.760;15.942;2023-08-17T05:49:23;11.85;;;10.85;;
24411;SDS011;12544;46.760;15.942;2023-08-17T05:51:49;12.02;;;10.82;;
24411;SDS011;12544;46.760;15.942;2023-08-17T05:54:14;12.27;;;11.27;;
24411;SDS011;12544;46.760;15.942;2023-08-17T05:56:40;12.93;;;11.73;;
24411;SDS011;12544;46.760;15.942;2023-08-17T05:59:11;12.30;;;11.20;;
24411;SDS011;12544;46.760;15.942;2023-08-17T06:01:37;12.50;;;11.40;;
24411;SDS011;12544;46.760;15.942;2023-08-17T06:04:03;12.18;;;11.18;;
24411;SDS011;12544;46.760;15.942;2023-08-17T06:06:29;11.63;;;10.63;;
24411;SDS011;12544;46.760;15.942;2023-08-17T06:08:55;13.35;;;12.25;;
24411;SDS011;12544;46.760;15.942;2023-08-17T06:11:34;11.13;;;10.07;;
24411;SDS011;12544;46.760;15.942;2023-08-17T06:14:00;12.13;;;10.93;;
24411;SDS011;12544;46.760;15.942;2023-08-17T06:16:25;12.02;;;11.00;;
24411;SDS011;12544;46.760;15.942;2023-08-17T06:18:51;12.10;;;11.00;;
24411;SDS011;12544;46.760;15.942;2023-08-17T06:21:17;13.25;;;11.52;;
24411;SDS011;12544;46.760;15.942;2023-08-17T06:26:32;11.60;;;10.70;;
24411;SDS011;12544;46.760;15.942;2023-08-17T06:28:58;11.60;;;10.50;;
24411;SDS011;12544;46.760;15.942;2023-08-17T06:31:23;11.45;;;10.55;;
24411;SDS011;12544;46.760;15.942;2023-08-17T06:33:55;10.52;;;9.63;;
24411;SDS011;12544;46.760;15.942;2023-08-17T06:36:21;10.85;;;9.85;;
24411;SDS011;12544;46.760;15.942;2023-08-17T06:38:46;11.20;;;10.23;;
24411;SDS011;12544;46.760;15.942;2023-08-17T06:41:12;11.23;;;10.15;;
24411;SDS011;12544;46.760;15.942;2023-08-17T06:43:38;11.43;;;10.18;;
24411;SDS011;12544;46.760;15.942;2023-08-17T06:46:03;10.75;;;9.43;;
24411;SDS011;12544;46.760;15.942;2023-08-17T06:48:29;11.45;;;9.93;;
24411;SDS011;12544;46.760;15.942;2023-08-17T06:50:56;11.95;;;10.00;;
24411;SDS011;12544;46.760;15.942;2023-08-17T06:53:22;10.15;;;9.30;;
24411;SDS011;12544;46.760;15.942;2023-08-17T06:55:47;9.98;;;9.20;;
24411;SDS011;12544;46.760;15.942;2023-08-17T06:58:13;10.70;;;9.70;;
24411;SDS011;12544;46.760;15.942;2023-08-17T07:00:39;11.38;;;10.15;;
24411;SDS011;12544;46.760;15.942;2023-08-17T07:03:05;10.80;;;9.85;;
24411;SDS011;12544;46.760;15.942;2023-08-17T07:05:31;11.68;;;9.18;;
24411;SDS011;12544;46.760;15.942;2023-08-17T07:07:57;10.55;;;9.50;;
24411;SDS011;12544;46.760;15.942;2023-08-17T07:10:24;13.93;;;9.43;;
24411;SDS011;12544;46.760;15.942;2023-08-17T07:12:50;9.38;;;8.60;;
24411;SDS011;12544;46.760;15.942;2023-08-17T07:15:16;9.25;;;8.30;;
24411;SDS011;12544;46.760;15.942;2023-08-17T07:17:43;10.15;;;9.05;;
24411;SDS011;12544;46.760;15.942;2023-08-17T07:20:09;9.27;;;8.50;;
24411;SDS011;12544;46.760;15.942;2023-08-17T07:22:36;12.52;;;8.95;;
24411;SDS011;12544;46.760;15.942;2023-08-17T07:25:02;10.32;;;9.32;;
24411;SDS011;12544;46.760;15.942;2023-08-17T07:27:28;9.25;;;8.45;;
24411;SDS011;12544;46.760;15.942;2023-08-17T07:29:54;9.55;;;8.63;;
24411;SDS011;12544;46.760;15.942;2023-08-17T07:32:20;9.48;;;8.48;;
24411;SDS011;12544;46.760;15.942;2023-08-17T07:34:46;9.80;;;8.82;;
24411;SDS011;12544;46.760;15.942;2023-08-17T07:37:12;11.93;;;8.25;;
24411;SDS011;12544;46.760;15.942;2023-08-17T07:39:38;8.95;;;8.15;;
24411;SDS011;12544;46.760;15.942;2023-08-17T07:42:03;8.40;;;7.63;;
24411;SDS011;12544;46.760;15.942;2023-08-17T07:44:41;9.43;;;8.35;;
24411;SDS011;12544;46.760;15.942;2023-08-17T07:47:07;9.35;;;8.55;;
24411;SDS011;12544;46.760;15.942;2023-08-17T07:49:32;8.57;;;7.78;;
24411;SDS011;12544;46.760;15.942;2023-08-17T07:51:58;8.43;;;7.72;;
24411;SDS011;12544;46.760;15.942;2023-08-17T07:54:24;8.55;;;7.65;;
24411;SDS011;12544;46.760;15.942;2023-08-17T07:56:50;8.88;;;8.07;;
24411;SDS011;12544;46.760;15.942;2023-08-17T07:59:22;9.10;;;8.00;;
24411;SDS011;12544;46.760;15.942;2023-08-17T08:01:48;8.48;;;7.78;;
24411;SDS011;12544;46.760;15.942;2023-08-17T08:04:14;7.63;;;6.97;;
24411;SDS011;12544;46.760;15.942;2023-08-17T08:06:39;10.07;;;8.07;;
24411;SDS011;12544;46.760;15.942;2023-08-17T08:09:05;9.45;;;8.50;;
24411;SDS011;12544;46.760;15.942;2023-08-17T08:11:31;8.23;;;7.53;;
24411;SDS011;12544;46.760;15.942;2023-08-17T08:13:57;8.82;;;8.05;;
24411;SDS011;12544;46.760;15.942;2023-08-17T08:16:22;8.65;;;7.95;;
24411;SDS011;12544;46.760;15.942;2023-08-17T08:18:48;9.10;;;8.20;;
24411;SDS011;12544;46.760;15.942;2023-08-17T08:21:14;9.27;;;8.52;;
24411;SDS011;12544;46.760;15.942;2023-08-17T08:23:39;10.02;;;8.10;;
24411;SDS011;12544;46.760;15.942;2023-08-17T08:26:05;7.50;;;6.88;;
24411;SDS011;12544;46.760;15.942;2023-08-17T08:28:30;8.10;;;7.40;;
24411;SDS011;12544;46.760;15.942;2023-08-17T08:31:00;8.43;;;7.38;;
24411;SDS011;12544;46.760;15.942;2023-08-17T08:33:28;8.27;;;7.47;;
24411;SDS011;12544;46.760;15.942;2023-08-17T08:35:53;7.88;;;7.18;;
24411;SDS011;12544;46.760;15.942;2023-08-17T08:40:47;8.55;;;7.28;;
24411;SDS011;12544;46.760;15.942;2023-08-17T08:43:16;7.35;;;6.78;;
24411;SDS011;12544;46.760;15.942;2023-08-17T08:45:42;7.63;;;6.90;;
24411;SDS011;12544;46.760;15.942;2023-08-17T08:48:11;7.35;;;6.65;;
24411;SDS011;12544;46.760;15.942;2023-08-17T08:50:39;7.88;;;7.20;;
24411;SDS011;12544;46.760;15.942;2023-08-17T08:53:08;8.25;;;6.03;;
24411;SDS011;12544;46.760;15.942;2023-08-17T08:55:40;8.23;;;7.43;;
24411;SDS011;12544;46.760;15.942;2023-08-17T08:58:12;7.75;;;7.05;;
24411;SDS011;12544;46.760;15.942;2023-08-17T09:00:41;7.63;;;6.85;;
24411;SDS011;12544;46.760;15.942;2023-08-17T09:03:07;7.03;;;6.43;;
24411;SDS011;12544;46.760;15.942;2023-08-17T09:05:33;7.45;;;6.60;;
24411;SDS011;12544;46.760;15.942;2023-08-17T09:08:01;7.60;;;6.93;;
24411;SDS011;12544;46.760;15.942;2023-08-17T09:10:27;7.40;;;6.70;;
24411;SDS011;12544;46.760;15.942;2023-08-17T09:12:53;8.25;;;7.45;;
24411;SDS011;12544;46.760;15.942;2023-08-17T09:15:19;8.30;;;7.60;;
24411;SDS011;12544;46.760;15.942;2023-08-17T09:17:51;8.00;;;7.20;;
24411;SDS011;12544;46.760;15.942;2023-08-17T09:20:36;7.90;;;6.97;;
24411;SDS011;12544;46.760;15.942;2023-08-17T09:23:06;8.18;;;7.10;;
24411;SDS011;12544;46.760;15.942;2023-08-17T09:25:37;7.70;;;6.85;;
24411;SDS011;12544;46.760;15.942;2023-08-17T09:28:08;9.13;;;6.80;;
24411;SDS011;12544;46.760;15.942;2023-08-17T09:30:48;7.32;;;6.63;;
24411;SDS011;12544;46.760;15.942;2023-08-17T09:33:21;8.07;;;7.38;;
24411;SDS011;12544;46.760;15.942;2023-08-17T09:35:49;7.55;;;6.72;;
24411;SDS011;12544;46.760;15.942;2023-08-17T09:38:16;7.07;;;6.45;;
24411;SDS011;12544;46.760;15.942;2023-08-17T09:40:43;7.63;;;6.60;;
24411;SDS011;12544;46.760;15.942;2023-08-17T09:43:09;7.35;;;6.65;;
24411;SDS011;12544;46.760;15.942;2023-08-17T09:45:36;7.72;;;5.80;;
24411;SDS011;12544;46.760;15.942;2023-08-17T09:48:03;7.88;;;6.75;;
24411;SDS011;12544;46.760;15.942;2023-08-17T09:50:29;7.28;;;6.20;;
24411;SDS011;12544;46.760;15.942;2023-08-17T09:52:54;7.05;;;6.05;;
24411;SDS011;12544;46.760;15.942;2023-08-17T09:55:23;6.80;;;6.32;;
24411;SDS011;12544;46.760;15.942;2023-08-17T09:57:50;8.27;;;7.47;;
24411;SDS011;12544;46.760;15.942;2023-08-17T10:00:17;7.75;;;7.07;;
24411;SDS011;12544;46.760;15.942;2023-08-17T10:02:48;7.43;;;6.80;;
24411;SDS011;12544;46.760;15.942;2023-08-17T10:05:17;9.10;;;7.60;;
24411;SDS011;12544;46.760;15.942;2023-08-17T10:07:47;7.72;;;6.95;;
24411;SDS011;12544;46.760;15.942;2023-08-17T10:10:21;7.63;;;6.43;;
24411;SDS011;12544;46.760;15.942;2023-08-17T10:12:53;7.28;;;6.60;;
24411;SDS011;12544;46.760;15.942;2023-08-17T10:15:32;7.13;;;6.53;;
24411;SDS011;12544;46.760;15.942;2023-08-17T10:20:53;7.32;;;6.70;;
24411;SDS011;12544;46.760;15.942;2023-08-17T10:23:26;13.40;;;6.60;;
24411;SDS011;12544;46.760;15.942;2023-08-17T10:25:53;7.40;;;6.75;;
24411;SDS011;12544;46.760;15.942;2023-08-17T10:28:19;6.20;;;5.70;;
24411;SDS011;12544;46.760;15.942;2023-08-17T10:30:47;7.43;;;6.70;;
24411;SDS011;12544;46.760;15.942;2023-08-17T10:33:13;7.15;;;6.43;;
24411;SDS011;12544;46.760;15.942;2023-08-17T10:35:40;11.25;;;7.22;;
24411;SDS011;12544;46.760;15.942;2023-08-17T10:38:07;16.20;;;6.18;;
24411;SDS011;12544;46.760;15.942;2023-08-17T10:40:41;7.20;;;5.63;;
24411;SDS011;12544;46.760;15.942;2023-08-17T10:43:07;6.75;;;6.18;;
24411;SDS011;12544;46.760;15.942;2023-08-17T10:48:55;5.25;;;4.85;;
24411;SDS011;12544;46.760;15.942;2023-08-17T10:51:30;5.55;;;5.05;;
24411;SDS011;12544;46.760;15.942;2023-08-17T10:53:58;5.55;;;5.15;;
24411;SDS011;12544;46.760;15.942;2023-08-17T10:56:26;9.20;;;5.40;;
24411;SDS011;12544;46.760;15.942;2023-08-17T10:58:53;4.90;;;4.32;;
24411;SDS011;12544;46.760;15.942;2023-08-17T11:01:35;5.05;;;4.65;;
24411;SDS011;12544;46.760;15.942;2023-08-17T11:07:23;5.05;;;4.30;;
24411;SDS011;12544;46.760;15.942;2023-08-17T11:09:53;4.55;;;4.15;;
24411;SDS011;12544;46.760;15.942;2023-08-17T11:12:25;32.80;;;6.05;;
24411;SDS011;12544;46.760;15.942;2023-08-17T11:14:51;4.75;;;4.32;;
24411;SDS011;12544;46.760;15.942;2023-08-17T11:17:19;4.88;;;4.35;;
24411;SDS011;12544;46.760;15.942;2023-08-17T11:19:45;5.13;;;4.40;;
24411;SDS011;12544;46.760;15.942;2023-08-17T11:25:34;5.63;;;4.30;;
24411;SDS011;12544;46.760;15.942;2023-08-17T11:28:00;12.48;;;4.70;;
24411;SDS011;12544;46.760;15.942;2023-08-17T11:30:27;6.10;;;4.32;;
24411;SDS011;12544;46.760;15.942;2023-08-17T11:32:53;4.38;;;3.97;;
24411;SDS011;12544;46.760;15.942;2023-08-17T11:35:20;64.20;;;7.13;;
24411;SDS011;12544;46.760;15.942;2023-08-17T11:37:46;5.30;;;3.83;;
24411;SDS011;12544;46.760;15.942;2023-08-17T11:40:16;4.72;;;3.92;;
24411;SDS011;12544;46.760;15.942;2023-08-17T11:42:42;7.45;;;4.45;;
24411;SDS011;12544;46.760;15.942;2023-08-17T11:45:08;4.32;;;3.72;;
24411;SDS011;12544;46.760;15.942;2023-08-17T11:47:35;4.43;;;4.13;;
24411;SDS011;12544;46.760;15.942;2023-08-17T11:50:01;4.30;;;4.00;;
24411;SDS011;12544;46.760;15.942;2023-08-17T11:52:28;7.82;;;4.22;;
24411;SDS011;12544;46.760;15.942;2023-08-17T11:54:57;5.38;;;3.33;;
24411;SDS011;12544;46.760;15.942;2023-08-17T11:57:23;5.20;;;4.75;;
24411;SDS011;12544;46.760;15.942;2023-08-17T11:59:52;4.85;;;4.45;;
24411;SDS011;12544;46.760;15.942;2023-08-17T12:02:22;4.10;;;3.70;;
24411;SDS011;12544;46.760;15.942;2023-08-17T12:08:12;4.30;;;3.90;;
24411;SDS011;12544;46.760;15.942;2023-08-17T12:10:39;5.28;;;3.75;;
24411;SDS011;12544;46.760;15.942;2023-08-17T12:13:05;3.90;;;3.60;;
24411;SDS011;12544;46.760;15.942;2023-08-17T12:15:31;5.03;;;3.58;;
24411;SDS011;12544;46.760;15.942;2023-08-17T12:17:59;4.28;;;3.97;;
24411;SDS011;12544;46.760;15.942;2023-08-17T12:20:25;3.90;;;3.60;;
24411;SDS011;12544;46.760;15.942;2023-08-17T12:22:51;3.83;;;3.53;;
24411;SDS011;12544;46.760;15.942;2023-08-17T12:25:20;5.82;;;3.63;;
24411;SDS011;12544;46.760;15.942;2023-08-17T12:27:46;4.43;;;4.13;;
24411;SDS011;12544;46.760;15.942;2023-08-17T12:30:34;3.92;;;3.63;;
24411;SDS011;12544;46.760;15.942;2023-08-17T12:33:01;4.35;;;3.95;;
24411;SDS011;12544;46.760;15.942;2023-08-17T12:35:27;7.35;;;4.88;;
24411;SDS011;12544;46.760;15.942;2023-08-17T12:37:53;5.35;;;3.65;;
24411;SDS011;12544;46.760;15.942;2023-08-17T12:40:19;4.30;;;3.83;;
24411;SDS011;12544;46.760;15.942;2023-08-17T12:42:47;6.35;;;4.03;;
24411;SDS011;12544;46.760;15.942;2023-08-17T12:45:13;3.85;;;3.45;;
24411;SDS011;12544;46.760;15.942;2023-08-17T12:47:39;4.80;;;4.40;;
24411;SDS011;12544;46.760;15.942;2023-08-17T12:50:05;3.83;;;3.53;;
24411;SDS011;12544;46.760;15.942;2023-08-17T12:52:31;4.55;;;3.33;;
24411;SDS011;12544;46.760;15.942;2023-08-17T12:54:57;4.00;;;3.60;;
24411;SDS011;12544;46.760;15.942;2023-08-17T12:57:29;4.47;;;4.07;;
24411;SDS011;12544;46.760;15.942;2023-08-17T12:59:55;3.90;;;3.53;;
24411;SDS011;12544;46.760;15.942;2023-08-17T13:02:21;4.53;;;3.67;;
24411;SDS011;12544;46.760;15.942;2023-08-17T13:04:47;4.82;;;3.53;;
24411;SDS011;12544;46.760;15.942;2023-08-17T13:07:13;7.90;;;3.92;;
24411;SDS011;12544;46.760;15.942;2023-08-17T13:09:39;4.50;;;4.10;;
24411;SDS011;12544;46.760;15.942;2023-08-17T13:12:04;5.75;;;3.58;;
24411;SDS011;12544;46.760;15.942;2023-08-17T13:14:30;4.55;;;4.15;;
24411;SDS011;12544;46.760;15.942;2023-08-17T13:16:56;4.43;;;3.88;;
24411;SDS011;12544;46.760;15.942;2023-08-17T13:19:21;5.00;;;4.55;;
24411;SDS011;12544;46.760;15.942;2023-08-17T13:21:47;5.57;;;3.83;;
24411;SDS011;12544;46.760;15.942;2023-08-17T13:24:12;5.65;;;3.53;;
24411;SDS011;12544;46.760;15.942;2023-08-17T13:26:38;6.07;;;3.60;;
24411;SDS011;12544;46.760;15.942;2023-08-17T13:29:04;4.28;;;3.55;;
24411;SDS011;12544;46.760;15.942;2023-08-17T13:31:30;4.32;;;3.65;;
24411;SDS011;12544;46.760;15.942;2023-08-17T13:33:55;4.82;;;3.22;;
24411;SDS011;12544;46.760;15.942;2023-08-17T13:36:22;9.93;;;3.67;;
24411;SDS011;12544;46.760;15.942;2023-08-17T13:38:47;4.90;;;3.97;;
24411;SDS011;12544;46.760;15.942;2023-08-17T13:41:13;4.13;;;3.50;;
24411;SDS011;12544;46.760;15.942;2023-08-17T13:43:39;5.88;;;3.33;;
24411;SDS011;12544;46.760;15.942;2023-08-17T13:46:05;3.45;;;3.15;;
24411;SDS011;12544;46.760;15.942;2023-08-17T13:48:31;3.53;;;3.22;;
24411;SDS011;12544;46.760;15.942;2023-08-17T13:50:56;4.45;;;3.33;;
24411;SDS011;12544;46.760;15.942;2023-08-17T13:53:22;4.00;;;3.60;;
24411;SDS011;12544;46.760;15.942;2023-08-17T13:55:48;4.63;;;3.45;;
24411;SDS011;12544;46.760;15.942;2023-08-17T13:58:14;5.93;;;3.60;;
24411;SDS011;12544;46.760;15.942;2023-08-17T14:00:40;4.60;;;4.20;;
24411;SDS011;12544;46.760;15.942;2023-08-17T14:03:06;4.95;;;3.50;;
24411;SDS011;12544;46.760;15.942;2023-08-17T14:05:32;4.15;;;3.35;;
24411;SDS011;12544;46.760;15.942;2023-08-17T14:07:58;4.00;;;3.70;;
24411;SDS011;12544;46.760;15.942;2023-08-17T14:10:24;3.42;;;3.13;;
24411;SDS011;12544;46.760;15.942;2023-08-17T14:12:49;7.28;;;3.65;;
24411;SDS011;12544;46.760;15.942;2023-08-17T14:15:15;4.15;;;3.78;;
24411;SDS011;12544;46.760;15.942;2023-08-17T14:17:40;4.50;;;3.55;;
24411;SDS011;12544;46.760;15.942;2023-08-17T14:20:06;4.53;;;4.05;;
24411;SDS011;12544;46.760;15.942;2023-08-17T14:22:33;3.95;;;3.00;;
24411;SDS011;12544;46.760;15.942;2023-08-17T14:24:59;3.60;;;3.17;;
24411;SDS011;12544;46.760;15.942;2023-08-17T14:27:24;4.00;;;3.58;;
24411;SDS011;12544;46.760;15.942;2023-08-17T14:29:50;3.75;;;3.50;;
24411;SDS011;12544;46.760;15.942;2023-08-17T14:32:15;4.32;;;3.50;;
24411;SDS011;12544;46.760;15.942;2023-08-17T14:34:41;4.00;;;3.63;;
24411;SDS011;12544;46.760;15.942;2023-08-17T14:37:07;4.80;;;3.78;;
24411;SDS011;12544;46.760;15.942;2023-08-17T14:39:32;4.20;;;3.80;;
24411;SDS011;12544;46.760;15.942;2023-08-17T14:41:58;3.70;;;3.40;;
24411;SDS011;12544;46.760;15.942;2023-08-17T14:44:24;3.55;;;3.25;;
24411;SDS011;12544;46.760;15.942;2023-08-17T14:46:49;3.97;;;3.67;;
24411;SDS011;12544;46.760;15.942;2023-08-17T14:49:15;5.10;;;3.70;;
24411;SDS011;12544;46.760;15.942;2023-08-17T14:51:42;3.53;;;3.22;;
24411;SDS011;12544;46.760;15.942;2023-08-17T14:54:08;4.10;;;3.67;;
24411;SDS011;12544;46.760;15.942;2023-08-17T14:56:33;5.30;;;3.80;;
24411;SDS011;12544;46.760;15.942;2023-08-17T14:58:59;3.97;;;3.67;;
24411;SDS011;12544;46.760;15.942;2023-08-17T15:01:25;6.00;;;3.50;;
24411;SDS011;12544;46.760;15.942;2023-08-17T15:03:50;4.95;;;3.72;;
24411;SDS011;12544;46.760;15.942;2023-08-17T15:06:16;4.45;;;4.05;;
24411;SDS011;12544;46.760;15.942;2023-08-17T15:08:42;4.35;;;4.03;;
24411;SDS011;12544;46.760;15.942;2023-08-17T15:11:07;4.72;;;3.85;;
24411;SDS011;12544;46.760;15.942;2023-08-17T15:13:33;5.07;;;4.45;;
24411;SDS011;12544;46.760;15.942;2023-08-17T15:15:58;4.03;;;3.72;;
24411;SDS011;12544;46.760;15.942;2023-08-17T15:18:24;4.07;;;3.78;;
24411;SDS011;12544;46.760;15.942;2023-08-17T15:20:50;5.85;;;4.43;;